Time;durP1;ratioP1;P1;durP2;ratioP2;P2;SDS_P1;SDS_P2;PMS_P1;PMS_P2;Temp;Humidity;BMP_temperature;BMP_pressure;BME280_temperature;BME280_humidity;BME280_pressure;Samples;Min_cycle;Max_cycle;Signal;HPM_P1;HPM_P2
2023/08/03 00:00:48;;;;;;;3.10;0.85;;;;;;;;;;4941103;28;94998;-86
2023/08/03 00:03:15;;;;;;;1.23;0.68;;;;;;;;;;4951458;28;95362;-86
2023/08/03 00:05:42;;;;;;;1.98;0.90;;;;;;;;;;4943739;28;92923;-86
2023/08/03 00:08:08;;;;;;;2.53;1.02;;;;;;;;;;4944911;28;92914;-86
2023/08/03 00:10:35;;;;;;;2.10;0.90;;;;;;;;;;4937919;28;93432;-86
2023/08/03 00:13:02;;;;;;;3.10;1.00;;;;;;;;;;4946824;28;92429;-87
2023/08/03 00:15:29;;;;;;;3.20;1.13;;;;;;;;;;4935101;28;94986;-87
2023/08/03 00:17:55;;;;;;;2.90;1.00;;;;;;;;;;4951221;28;91866;-87
2023/08/03 00:20:22;;;;;;;2.05;0.90;;;;;;;;;;4935066;28;92599;-87
2023/08/03 00:22:49;;;;;;;4.22;1.00;;;;;;;;;;4950301;28;92838;-87
2023/08/03 00:25:15;;;;;;;5.45;1.15;;;;;;;;;;4940994;28;94802;-88
2023/08/03 00:27:42;;;;;;;3.65;1.27;;;;;;;;;;4934506;28;97720;-86
2023/08/03 00:30:09;;;;;;;4.40;1.10;;;;;;;;;;4937668;28;93228;-86
2023/08/03 00:32:36;;;;;;;3.88;1.17;;;;;;;;;;4935274;28;92807;-86
2023/08/03 00:35:02;;;;;;;3.75;1.05;;;;;;;;;;4939240;28;92950;-88
2023/08/03 00:37:29;;;;;;;3.78;1.20;;;;;;;;;;4933118;28;96097;-90
2023/08/03 00:39:56;;;;;;;4.05;1.10;;;;;;;;;;4947733;28;92585;-91
2023/08/03 00:42:22;;;;;;;3.30;1.20;;;;;;;;;;4946271;28;92754;-87
2023/08/03 00:44:49;;;;;;;4.75;1.17;;;;;;;;;;4959304;28;93810;-83
2023/08/03 00:47:16;;;;;;;4.65;1.30;;;;;;;;;;4954877;28;95573;-86
2023/08/03 00:49:43;;;;;;;5.03;1.30;;;;;;;;;;4957909;28;95666;-86
2023/08/03 00:52:09;;;;;;;3.67;1.30;;;;;;;;;;4956311;28;92988;-85
2023/08/03 00:54:36;;;;;;;4.30;1.17;;;;;;;;;;4939449;28;95787;-83
2023/08/03 00:57:04;;;;;;;4.50;1.30;;;;;;;;;;4940999;28;92763;-87
2023/08/03 00:59:30;;;;;;;5.03;1.30;;;;;;;;;;4956216;28;92408;-85
2023/08/03 01:01:58;;;;;;;3.38;1.20;;;;;;;;;;4954230;28;93582;-87
2023/08/03 01:04:24;;;;;;;5.07;1.33;;;;;;;;;;4949997;28;93044;-84
2023/08/03 01:06:54;;;;;;;3.03;1.05;;;;;;;;;;4938622;28;92232;-84
2023/08/03 01:09:20;;;;;;;4.75;1.30;;;;;;;;;;4948889;28;93176;-83
2023/08/03 01:11:47;;;;;;;2.63;1.08;;;;;;;;;;4941573;28;92528;-84
2023/08/03 01:14:13;;;;;;;4.28;1.15;;;;;;;;;;4935229;28;97802;-84
2023/08/03 01:16:40;;;;;;;4.95;1.00;;;;;;;;;;4941950;28;95494;-84
2023/08/03 01:19:07;;;;;;;3.90;1.13;;;;;;;;;;4940257;28;92936;-86
2023/08/03 01:21:34;;;;;;;3.05;1.10;;;;;;;;;;4946420;28;96036;-87
2023/08/03 01:24:01;;;;;;;2.63;1.10;;;;;;;;;;4940910;28;93385;-86
2023/08/03 01:26:27;;;;;;;1.98;1.08;;;;;;;;;;4939433;28;92834;-86
2023/08/03 01:28:54;;;;;;;4.15;1.10;;;;;;;;;;4954225;28;94086;-86
2023/08/03 01:31:21;;;;;;;4.07;1.10;;;;;;;;;;4954012;28;91804;-87
2023/08/03 01:33:48;;;;;;;3.50;1.15;;;;;;;;;;4942049;28;92464;-87
2023/08/03 01:36:15;;;;;;;4.72;1.27;;;;;;;;;;4933954;28;93333;-87
2023/08/03 01:38:41;;;;;;;2.85;1.00;;;;;;;;;;4946728;28;94844;-86
2023/08/03 01:41:08;;;;;;;2.50;0.98;;;;;;;;;;4952645;28;98212;-86
2023/08/03 01:43:35;;;;;;;9.05;1.38;;;;;;;;;;4952489;28;95170;-86
2023/08/03 01:46:01;;;;;;;5.13;1.10;;;;;;;;;;4938412;28;92605;-84
2023/08/03 01:48:28;;;;;;;4.90;1.15;;;;;;;;;;4938887;28;92983;-85
2023/08/03 01:50:54;;;;;;;4.18;1.30;;;;;;;;;;4952636;28;94957;-86
2023/08/03 01:53:21;;;;;;;6.38;1.50;;;;;;;;;;4944956;28;92960;-86
2023/08/03 01:55:48;;;;;;;6.80;1.30;;;;;;;;;;4939577;28;92402;-86
2023/08/03 01:58:14;;;;;;;4.10;1.00;;;;;;;;;;4955437;28;92520;-86
2023/08/03 02:00:41;;;;;;;2.83;1.20;;;;;;;;;;4939078;28;93009;-86
2023/08/03 02:03:07;;;;;;;6.13;1.40;;;;;;;;;;4946595;28;96173;-86
2023/08/03 02:05:34;;;;;;;4.47;1.05;;;;;;;;;;4954643;28;93233;-86
2023/08/03 02:08:01;;;;;;;5.63;1.20;;;;;;;;;;4940553;28;95626;-86
2023/08/03 02:10:27;;;;;;;4.60;1.40;;;;;;;;;;4944916;28;96566;-86
2023/08/03 02:12:54;;;;;;;4.25;1.10;;;;;;;;;;4951301;28;92384;-85
2023/08/03 02:15:21;;;;;;;3.05;1.10;;;;;;;;;;4935617;28;96130;-85
2023/08/03 02:17:48;;;;;;;4.15;1.13;;;;;;;;;;4929894;28;92435;-85
2023/08/03 02:20:14;;;;;;;3.10;1.17;;;;;;;;;;4952498;28;95039;-85
2023/08/03 02:22:41;;;;;;;7.07;1.15;;;;;;;;;;4953636;28;93128;-84
2023/08/03 02:25:08;;;;;;;4.35;1.10;;;;;;;;;;4939666;28;92561;-85
2023/08/03 02:27:34;;;;;;;4.40;1.08;;;;;;;;;;4950950;28;94854;-85
2023/08/03 02:30:01;;;;;;;4.75;1.20;;;;;;;;;;4952154;28;96009;-84
2023/08/03 02:32:31;;;;;;;3.55;1.10;;;;;;;;;;4924902;28;92621;-85
2023/08/03 02:34:58;;;;;;;4.10;1.25;;;;;;;;;;4915416;28;95514;-85
2023/08/03 02:37:26;;;;;;;3.42;1.20;;;;;;;;;;4952142;28;92601;-86
2023/08/03 02:39:53;;;;;;;3.13;1.20;;;;;;;;;;4951784;28;94830;-86
2023/08/03 02:42:25;;;;;;;4.28;1.20;;;;;;;;;;4942720;28;95637;-86
2023/08/03 02:44:52;;;;;;;2.80;1.30;;;;;;;;;;4930314;28;91737;-86
2023/08/03 02:47:19;;;;;;;4.47;1.20;;;;;;;;;;4937791;28;92511;-87
2023/08/03 02:49:46;;;;;;;;;;;;;;;;;;4931914;28;94611;-85
2023/08/03 02:52:13;;;;;;;6.68;1.55;;;;;;;;;;4938030;28;94856;-89
2023/08/03 02:54:45;;;;;;;9.20;1.60;;;;;;;;;;4955116;28;98152;-90
2023/08/03 02:57:14;;;;;;;6.00;1.38;;;;;;;;;;4950698;28;92530;-88
2023/08/03 02:59:41;;;;;;;3.63;1.38;;;;;;;;;;4940897;28;93006;-88
2023/08/03 03:02:08;;;;;;;4.75;1.13;;;;;;;;;;4941873;28;95845;-89
2023/08/03 03:04:37;;;;;;;4.70;1.50;;;;;;;;;;4955834;28;92988;-88
2023/08/03 03:07:05;;;;;;;5.35;1.33;;;;;;;;;;4951528;28;92743;-88
2023/08/03 03:09:32;;;;;;;4.35;1.30;;;;;;;;;;4946423;28;95122;-90
2023/08/03 03:12:02;;;;;;;4.60;1.27;;;;;;;;;;4952821;28;92396;-88
2023/08/03 03:14:39;;;;;;;4.68;1.27;;;;;;;;;;4939770;28;95193;-88
2023/08/03 03:17:05;;;;;;;4.82;1.40;;;;;;;;;;4930456;28;96145;-88
2023/08/03 03:19:33;;;;;;;5.07;1.52;;;;;;;;;;4948800;28;95079;-88
2023/08/03 03:22:04;;;;;;;4.18;1.27;;;;;;;;;;4937331;28;94019;-87
2023/08/03 03:24:32;;;;;;;4.22;1.50;;;;;;;;;;4953474;28;92603;-87
2023/08/03 03:26:58;;;;;;;5.60;1.20;;;;;;;;;;4947930;28;92496;-88
2023/08/03 03:29:25;;;;;;;4.43;1.17;;;;;;;;;;4953215;28;94106;-88
2023/08/03 03:31:52;;;;;;;5.00;1.13;;;;;;;;;;4946660;28;92927;-87
2023/08/03 03:34:18;;;;;;;3.20;1.08;;;;;;;;;;4944601;28;95874;-87
2023/08/03 03:36:46;;;;;;;3.58;1.30;;;;;;;;;;4955460;28;95175;-86
2023/08/03 03:39:13;;;;;;;3.63;1.15;;;;;;;;;;4963594;28;93511;-87
2023/08/03 03:41:39;;;;;;;4.15;1.20;;;;;;;;;;4939874;28;94944;-87
2023/08/03 03:44:06;;;;;;;6.00;1.30;;;;;;;;;;4950308;28;92612;-86
2023/08/03 03:46:33;;;;;;;3.20;1.10;;;;;;;;;;4939808;28;95305;-86
2023/08/03 03:49:00;;;;;;;3.03;1.20;;;;;;;;;;4935529;28;93854;-87
2023/08/03 03:51:27;;;;;;;;;;;;;;;;;;4952479;28;93680;-86
2023/08/03 03:53:56;;;;;;;3.88;1.17;;;;;;;;;;4938534;28;93733;-88
2023/08/03 03:56:23;;;;;;;4.55;1.23;;;;;;;;;;4937125;28;95861;-88
2023/08/03 03:58:50;;;;;;;3.10;1.00;;;;;;;;;;4932639;28;91811;-88
2023/08/03 04:01:17;;;;;;;2.58;0.80;;;;;;;;;;4932076;28;95213;-89
2023/08/03 04:03:47;;;;;;;5.18;1.30;;;;;;;;;;4939089;28;92755;-88
2023/08/03 04:06:14;;;;;;;2.78;1.23;;;;;;;;;;4922313;28;94831;-87
2023/08/03 04:08:41;;;;;;;3.65;1.10;;;;;;;;;;4923368;28;96092;-86
2023/08/03 04:11:07;;;;;;;3.33;1.20;;;;;;;;;;4937745;28;92399;-87
2023/08/03 04:13:34;;;;;;;3.05;1.00;;;;;;;;;;4941304;28;92857;-88
2023/08/03 04:16:00;;;;;;;2.65;1.10;;;;;;;;;;4914935;28;96233;-87
2023/08/03 04:18:30;;;;;;;2.15;1.00;;;;;;;;;;4940098;28;92473;-87
2023/08/03 04:20:56;;;;;;;2.38;0.93;;;;;;;;;;4954221;28;94823;-88
2023/08/03 04:23:23;;;;;;;3.10;1.17;;;;;;;;;;4946957;28;91577;-90
2023/08/03 04:25:52;;;;;;;3.28;1.10;;;;;;;;;;4945278;28;94649;-90
2023/08/03 04:28:21;;;;;;;2.88;1.15;;;;;;;;;;4935212;28;96203;-89
2023/08/03 04:30:48;;;;;;;3.95;1.10;;;;;;;;;;4952534;28;95160;-90
2023/08/03 04:33:15;;;;;;;3.22;1.20;;;;;;;;;;4929076;28;98078;-89
2023/08/03 04:35:41;;;;;;;3.38;1.17;;;;;;;;;;4931183;28;93050;-89
2023/08/03 04:38:11;;;;;;;2.53;1.02;;;;;;;;;;4942780;28;92454;-87
2023/08/03 04:40:43;;;;;;;2.65;1.23;;;;;;;;;;4922733;28;95594;-88
2023/08/03 04:43:11;;;;;;;;;;;;;;;;;;4953878;28;95649;-86
2023/08/03 04:45:37;;;;;;;6.47;1.15;;;;;;;;;;4934564;28;94013;-85
2023/08/03 04:48:04;;;;;;;3.55;1.30;;;;;;;;;;4942022;28;95299;-83
2023/08/03 04:50:31;;;;;;;2.47;1.00;;;;;;;;;;4935635;28;92473;-84
2023/08/03 04:52:58;;;;;;;3.75;1.23;;;;;;;;;;4941520;28;92955;-84
2023/08/03 04:55:25;;;;;;;3.90;1.20;;;;;;;;;;4938576;28;97229;-84
2023/08/03 04:57:52;;;;;;;3.30;1.30;;;;;;;;;;4940068;28;92913;-84
2023/08/03 05:00:21;;;;;;;4.28;1.58;;;;;;;;;;4951057;28;95791;-84
2023/08/03 05:02:49;;;;;;;6.82;1.40;;;;;;;;;;4934910;28;96093;-84
2023/08/03 05:05:15;;;;;;;5.90;1.30;;;;;;;;;;4935632;28;92490;-85
2023/08/03 05:07:42;;;;;;;6.82;1.33;;;;;;;;;;4940675;28;94334;-87
2023/08/03 05:10:09;;;;;;;3.47;1.20;;;;;;;;;;4940626;28;92935;-87
2023/08/03 05:12:35;;;;;;;3.30;1.02;;;;;;;;;;4938459;28;94413;-87
2023/08/03 05:15:02;;;;;;;4.03;1.30;;;;;;;;;;4951919;28;95805;-88
2023/08/03 05:17:29;;;;;;;5.88;1.40;;;;;;;;;;4949356;28;92303;-90
2023/08/03 05:19:55;;;;;;;4.10;1.50;;;;;;;;;;4944202;28;94902;-87
2023/08/03 05:22:22;;;;;;;3.67;1.30;;;;;;;;;;4958545;28;91981;-86
2023/08/03 05:24:49;;;;;;;7.93;1.60;;;;;;;;;;4947040;28;92571;-85
2023/08/03 05:27:15;;;;;;;3.38;1.00;;;;;;;;;;4954801;28;92985;-86
2023/08/03 05:29:43;;;;;;;6.78;1.48;;;;;;;;;;4958820;28;94055;-89
2023/08/03 05:32:10;;;;;;;4.55;1.30;;;;;;;;;;4971291;28;91953;-89
2023/08/03 05:34:36;;;;;;;8.13;1.40;;;;;;;;;;4956786;28;92304;-88
2023/08/03 05:37:03;;;;;;;4.75;1.30;;;;;;;;;;4975421;28;91377;-86
2023/08/03 05:39:30;;;;;;;6.80;1.20;;;;;;;;;;4976222;28;92140;-86
2023/08/03 05:41:56;;;;;;;8.25;1.83;;;;;;;;;;4972628;28;92222;-86
2023/08/03 05:44:23;;;;;;;4.45;1.27;;;;;;;;;;4974226;28;94806;-88
2023/08/03 05:46:49;;;;;;;6.53;1.55;;;;;;;;;;4973198;28;97099;-87
2023/08/03 05:49:16;;;;;;;4.97;1.10;;;;;;;;;;4966243;28;93278;-86
2023/08/03 05:51:43;;;;;;;5.25;1.15;;;;;;;;;;4952793;28;92105;-88
2023/08/03 05:54:10;;;;;;;;;;;;;;;;;;4958235;28;92410;-88
2023/08/03 05:56:37;;;;;;;4.35;1.27;;;;;;;;;;4978871;28;106796;-88
2023/08/03 05:59:04;;;;;;;5.45;1.45;;;;;;;;;;4974678;28;92402;-86
2023/08/03 06:01:30;;;;;;;6.85;1.40;;;;;;;;;;4952957;28;92332;-88
2023/08/03 06:03:57;;;;;;;5.97;1.55;;;;;;;;;;4932663;28;92534;-87
2023/08/03 06:06:24;;;;;;;6.60;1.30;;;;;;;;;;4953785;28;92860;-88
2023/08/03 06:08:52;;;;;;;5.47;1.38;;;;;;;;;;4946080;28;95621;-88
2023/08/03 06:11:20;;;;;;;5.68;1.42;;;;;;;;;;4946711;28;92578;-87
2023/08/03 06:13:53;;;;;;;6.30;1.20;;;;;;;;;;4962320;28;96140;-88
2023/08/03 06:16:22;;;;;;;5.55;1.40;;;;;;;;;;4940879;28;92760;-89
2023/08/03 06:18:49;;;;;;;4.88;1.40;;;;;;;;;;4935108;28;92995;-88
2023/08/03 06:21:17;;;;;;;5.88;1.40;;;;;;;;;;4951359;28;93295;-88
2023/08/03 06:23:45;;;;;;;8.07;1.67;;;;;;;;;;4943901;28;92894;-87
2023/08/03 06:26:12;;;;;;;8.45;1.40;;;;;;;;;;4949445;28;91908;-89
2023/08/03 06:28:39;;;;;;;3.10;1.35;;;;;;;;;;4954834;28;92462;-90
2023/08/03 06:31:15;;;;;;;6.93;1.75;;;;;;;;;;4949965;28;92850;-85
2023/08/03 06:33:43;;;;;;;6.13;1.55;;;;;;;;;;4939086;28;95336;-85
2023/08/03 06:36:20;;;;;;;6.32;1.48;;;;;;;;;;4937671;28;92489;-87
2023/08/03 06:38:47;;;;;;;8.05;1.45;;;;;;;;;;4957679;28;92932;-86
2023/08/03 06:41:13;;;;;;;8.38;1.55;;;;;;;;;;4955813;28;94376;-87
2023/08/03 06:43:40;;;;;;;6.45;1.63;;;;;;;;;;4955897;28;92500;-87
2023/08/03 06:46:07;;;;;;;6.03;1.60;;;;;;;;;;4962505;28;92653;-85
2023/08/03 06:48:34;;;;;;;7.63;1.58;;;;;;;;;;4940157;28;93374;-85
2023/08/03 06:51:02;;;;;;;6.65;1.65;;;;;;;;;;4949833;28;91766;-85
2023/08/03 06:53:29;;;;;;;7.22;1.58;;;;;;;;;;4944636;28;92546;-85
2023/08/03 06:55:56;;;;;;;;;;;;;;;;;;4955203;28;92432;-84
2023/08/03 06:58:22;;;;;;;5.68;1.25;;;;;;;;;;4945686;28;95204;-85
2023/08/03 07:00:49;;;;;;;7.35;1.60;;;;;;;;;;4953393;28;93160;-85
2023/08/03 07:03:16;;;;;;;7.13;1.63;;;;;;;;;;4940821;28;92475;-85
2023/08/03 07:05:43;;;;;;;6.18;1.42;;;;;;;;;;4950937;28;93517;-85
2023/08/03 07:08:10;;;;;;;6.70;1.40;;;;;;;;;;4941010;28;93896;-85
2023/08/03 07:10:37;;;;;;;3.65;1.30;;;;;;;;;;4940408;28;92581;-85
2023/08/03 07:13:05;;;;;;;5.43;1.38;;;;;;;;;;4958615;28;93144;-85
2023/08/03 07:15:34;;;;;;;5.10;1.33;;;;;;;;;;4953614;28;92504;-86
2023/08/03 07:18:02;;;;;;;7.10;1.33;;;;;;;;;;4934467;28;92684;-86
2023/08/03 07:20:28;;;;;;;5.85;1.38;;;;;;;;;;4956528;28;93147;-86
2023/08/03 07:22:55;;;;;;;7.10;1.40;;;;;;;;;;4937027;28;94859;-87
2023/08/03 07:25:22;;;;;;;6.28;1.42;;;;;;;;;;4944266;28;98314;-86
2023/08/03 07:27:49;;;;;;;10.32;1.83;;;;;;;;;;4952095;28;94511;-84
2023/08/03 07:30:16;;;;;;;5.80;1.60;;;;;;;;;;4950277;28;92428;-84
2023/08/03 07:32:43;;;;;;;7.75;1.60;;;;;;;;;;4941214;28;93386;-84
2023/08/03 07:35:09;;;;;;;6.25;1.45;;;;;;;;;;4937078;28;93061;-84
2023/08/03 07:37:36;;;;;;;4.38;1.33;;;;;;;;;;4936315;28;92581;-86
2023/08/03 07:40:03;;;;;;;5.70;1.40;;;;;;;;;;4923635;28;92972;-83
2023/08/03 07:42:29;;;;;;;6.18;1.30;;;;;;;;;;4935901;28;92854;-86
2023/08/03 07:44:56;;;;;;;5.00;1.30;;;;;;;;;;4939324;28;94793;-87
2023/08/03 07:47:22;;;;;;;4.05;1.20;;;;;;;;;;4933886;28;95981;-87
2023/08/03 07:49:49;;;;;;;3.95;1.17;;;;;;;;;;4935838;28;92800;-87
2023/08/03 07:52:15;;;;;;;4.47;1.33;;;;;;;;;;4948823;28;92982;-86
2023/08/03 07:54:42;;;;;;;4.32;1.38;;;;;;;;;;4931187;28;92759;-86
2023/08/03 07:57:15;;;;;;;4.10;1.30;;;;;;;;;;4946802;28;92934;-87
2023/08/03 07:59:42;;;;;;;3.78;1.23;;;;;;;;;;4946497;28;93069;-86
2023/08/03 08:02:09;;;;;;;5.03;1.38;;;;;;;;;;4940676;28;92778;-86
2023/08/03 08:04:35;;;;;;;2.80;1.20;;;;;;;;;;4943771;28;92773;-86
2023/08/03 08:07:02;;;;;;;7.47;1.65;;;;;;;;;;4948917;28;93235;-86
2023/08/03 08:09:28;;;;;;;5.88;1.40;;;;;;;;;;4945794;28;92791;-86
2023/08/03 08:11:58;;;;;;;6.93;1.48;;;;;;;;;;4949640;28;96003;-87
2023/08/03 08:14:25;;;;;;;6.05;1.33;;;;;;;;;;4940818;28;96013;-86
2023/08/03 08:16:51;;;;;;;3.97;1.17;;;;;;;;;;4931081;28;92670;-86
2023/08/03 08:19:37;;;;;;;3.50;1.20;;;;;;;;;;4933785;28;92808;-85
2023/08/03 08:22:06;;;;;;;4.35;1.30;;;;;;;;;;4950748;28;93223;-85
2023/08/03 08:24:42;;;;;;;3.75;1.20;;;;;;;;;;4947621;28;92886;-89
2023/08/03 08:27:09;;;;;;;6.30;1.40;;;;;;;;;;4951373;28;93055;-89
2023/08/03 08:29:37;;;;;;;;;;;;;;;;;;4951856;28;92050;-89
2023/08/03 08:32:04;;;;;;;5.00;1.40;;;;;;;;;;4961119;28;104102;-89
2023/08/03 08:34:30;;;;;;;7.72;1.63;;;;;;;;;;4935189;28;92937;-90
2023/08/03 08:36:58;;;;;;;5.30;1.52;;;;;;;;;;4929549;28;94796;-90
2023/08/03 08:39:25;;;;;;;6.18;1.70;;;;;;;;;;4935703;28;94192;-90
2023/08/03 08:41:51;;;;;;;7.43;1.90;;;;;;;;;;4931567;28;94365;-90
2023/08/03 08:44:18;;;;;;;7.15;1.83;;;;;;;;;;4922857;28;95861;-91
2023/08/03 08:46:45;;;;;;;7.80;2.15;;;;;;;;;;4951416;28;93372;-90
2023/08/03 08:49:12;;;;;;;6.82;2.03;;;;;;;;;;4940831;28;92422;-91
2023/08/03 08:51:42;;;;;;;8.63;1.88;;;;;;;;;;4940190;28;92806;-90
2023/08/03 08:54:12;;;;;;;6.05;1.50;;;;;;;;;;4947189;28;93570;-92
2023/08/03 08:56:41;;;;;;;8.35;2.10;;;;;;;;;;4926855;28;92494;-91
2023/08/03 08:59:11;;;;;;;4.55;1.70;;;;;;;;;;4946744;28;94764;-91
2023/08/03 09:01:47;;;;;;;7.95;2.00;;;;;;;;;;4965427;28;95413;-91
2023/08/03 09:04:14;;;;;;;5.60;1.60;;;;;;;;;;4939062;28;92173;-90
2023/08/03 09:06:44;;;;;;;5.53;1.80;;;;;;;;;;4952576;28;94571;-91
2023/08/03 09:09:12;;;;;;;4.80;1.50;;;;;;;;;;4965109;28;92791;-91
2023/08/03 09:11:40;;;;;;;6.15;1.92;;;;;;;;;;4954281;28;93057;-90
2023/08/03 09:14:08;;;;;;;7.47;1.85;;;;;;;;;;4940321;28;94369;-91
2023/08/03 09:16:35;;;;;;;7.10;1.70;;;;;;;;;;4942700;28;92694;-91
2023/08/03 09:19:33;;;;;;;6.95;1.80;;;;;;;;;;4947356;28;91771;-90
2023/08/03 09:22:00;;;;;;;5.55;1.77;;;;;;;;;;4940522;28;93003;-90
2023/08/03 09:24:29;;;;;;;5.45;1.77;;;;;;;;;;4939565;28;92772;-90
2023/08/03 09:26:59;;;;;;;6.72;2.10;;;;;;;;;;4947063;28;96608;-88
2023/08/03 09:29:30;;;;;;;4.75;1.70;;;;;;;;;;4949890;28;92671;-90
2023/08/03 09:32:04;;;;;;;5.85;1.75;;;;;;;;;;4943718;28;93927;-91
2023/08/03 09:34:39;;;;;;;4.60;1.42;;;;;;;;;;4928525;28;95615;-88
2023/08/03 09:37:10;;;;;;;5.80;1.58;;;;;;;;;;4945461;28;92491;-91
2023/08/03 09:39:38;;;;;;;;;;;;;;;;;;4939203;28;93276;-89
2023/08/03 09:42:05;;;;;;;5.05;1.60;;;;;;;;;;4947172;28;104226;-92
2023/08/03 09:44:36;;;;;;;5.32;1.60;;;;;;;;;;4935947;28;92138;-90
2023/08/03 09:47:03;;;;;;;5.07;1.65;;;;;;;;;;4925061;28;94432;-91
2023/08/03 09:49:31;;;;;;;5.03;1.60;;;;;;;;;;4940351;28;93287;-89
2023/08/03 09:52:05;;;;;;;5.65;1.70;;;;;;;;;;4949064;28;95049;-94
2023/08/03 09:54:35;;;;;;;4.07;1.30;;;;;;;;;;4955193;28;94635;-92
2023/08/03 09:57:23;;;;;;;4.60;1.30;;;;;;;;;;4957575;28;92018;-92
2023/08/03 09:59:54;;;;;;;5.05;1.67;;;;;;;;;;4948756;28;93487;-93
2023/08/03 10:02:23;;;;;;;5.47;1.70;;;;;;;;;;4917708;28;94450;-89
2023/08/03 10:04:56;;;;;;;5.03;1.50;;;;;;;;;;4928700;28;92517;-87
2023/08/03 10:07:25;;;;;;;5.57;1.90;;;;;;;;;;4937806;28;92954;-89
2023/08/03 10:09:54;;;;;;;5.85;1.55;;;;;;;;;;4944348;28;95562;-89
2023/08/03 10:12:24;;;;;;;4.97;1.83;;;;;;;;;;4950054;28;92642;-88
2023/08/03 10:14:51;;;;;;;5.50;1.45;;;;;;;;;;4930511;28;95228;-88
2023/08/03 10:17:19;;;;;;;6.10;1.83;;;;;;;;;;4931094;28;95570;-89
2023/08/03 10:19:45;;;;;;;3.67;1.50;;;;;;;;;;4939165;28;94272;-89
2023/08/03 10:22:12;;;;;;;5.55;1.63;;;;;;;;;;4948195;28;92610;-90
2023/08/03 10:24:39;;;;;;;4.57;1.48;;;;;;;;;;4938928;28;93024;-88
2023/08/03 10:27:17;;;;;;;5.88;1.83;;;;;;;;;;4956029;28;92441;-88
2023/08/03 10:29:52;;;;;;;6.28;1.60;;;;;;;;;;4945658;28;96317;-89
2023/08/03 10:32:23;;;;;;;6.25;1.70;;;;;;;;;;4933459;28;92700;-89
2023/08/03 10:34:56;;;;;;;5.25;1.60;;;;;;;;;;4937426;28;93284;-90
2023/08/03 10:37:23;;;;;;;5.75;1.83;;;;;;;;;;4934090;28;92893;-90
2023/08/03 10:39:49;;;;;;;6.45;1.60;;;;;;;;;;4945515;28;93306;-88
2023/08/03 10:42:23;;;;;;;4.00;1.60;;;;;;;;;;4946837;28;97060;-90
2023/08/03 10:44:50;;;;;;;5.30;1.42;;;;;;;;;;4941995;28;92628;-91
2023/08/03 10:47:29;;;;;;;5.57;1.40;;;;;;;;;;4928020;28;92756;-91
2023/08/03 10:49:57;;;;;;;6.72;1.50;;;;;;;;;;4946310;28;96240;-85
2023/08/03 10:52:26;;;;;;;6.53;2.05;;;;;;;;;;4953912;28;92473;-88
2023/08/03 10:54:53;;;;;;;5.93;1.53;;;;;;;;;;4938664;28;92637;-88
2023/08/03 10:57:24;;;;;;;4.72;1.42;;;;;;;;;;4950857;28;92526;-91
2023/08/03 10:59:53;;;;;;;5.03;1.33;;;;;;;;;;4940242;28;91808;-86
2023/08/03 11:02:22;;;;;;;3.78;1.30;;;;;;;;;;4946579;28;93021;-84
2023/08/03 11:04:52;;;;;;;4.88;1.45;;;;;;;;;;4945032;28;92984;-86
2023/08/03 11:07:22;;;;;;;4.45;1.40;;;;;;;;;;4946688;28;94847;-88
2023/08/03 11:09:49;;;;;;;5.00;1.42;;;;;;;;;;4943410;28;92582;-87
2023/08/03 11:12:16;;;;;;;5.13;1.40;;;;;;;;;;4937885;28;92566;-87
2023/08/03 11:14:44;;;;;;;5.75;1.45;;;;;;;;;;4939623;28;92908;-86
2023/08/03 11:17:10;;;;;;;;;;;;;;;;;;4951572;28;93080;-84
2023/08/03 11:19:37;;;;;;;6.72;1.42;;;;;;;;;;4947030;28;112018;-86
2023/08/03 11:22:05;;;;;;;4.82;1.42;;;;;;;;;;4953836;28;93610;-87
2023/08/03 11:24:32;;;;;;;3.65;1.30;;;;;;;;;;4949627;28;92019;-87
2023/08/03 11:26:59;;;;;;;5.10;1.52;;;;;;;;;;4949134;28;95061;-86
2023/08/03 11:29:26;;;;;;;5.68;1.50;;;;;;;;;;4949466;28;92481;-86
2023/08/03 11:31:53;;;;;;;5.57;1.42;;;;;;;;;;4938112;28;95481;-86
2023/08/03 11:34:22;;;;;;;5.75;1.50;;;;;;;;;;4937323;28;95486;-86
2023/08/03 11:36:51;;;;;;;6.35;1.48;;;;;;;;;;4948849;28;93089;-86
2023/08/03 11:39:20;;;;;;;4.07;1.20;;;;;;;;;;4945665;28;92883;-86
2023/08/03 11:41:48;;;;;;;5.75;1.20;;;;;;;;;;4962956;28;93000;-90
2023/08/03 11:44:15;;;;;;;4.88;1.30;;;;;;;;;;4949562;28;93152;-88
2023/08/03 11:46:41;;;;;;;2.78;1.05;;;;;;;;;;4939990;28;94679;-87
2023/08/03 11:49:13;;;;;;;4.38;1.13;;;;;;;;;;4953920;28;92790;-87
2023/08/03 11:51:41;;;;;;;6.82;1.35;;;;;;;;;;4960637;28;92655;-87
2023/08/03 11:54:09;;;;;;;4.50;1.25;;;;;;;;;;4952090;28;92584;-86
2023/08/03 11:56:39;;;;;;;6.13;1.33;;;;;;;;;;4940423;28;94919;-87
2023/08/03 11:59:10;;;;;;;4.57;1.10;;;;;;;;;;4942423;28;92429;-86
2023/08/03 12:01:46;;;;;;;5.95;1.30;;;;;;;;;;4943417;28;92711;-86
2023/08/03 12:04:14;;;;;;;4.13;1.40;;;;;;;;;;4931517;28;92636;-86
2023/08/03 12:06:51;;;;;;;5.47;1.27;;;;;;;;;;4933592;28;92879;-86
2023/08/03 12:09:26;;;;;;;7.07;1.63;;;;;;;;;;4928587;28;95638;-87
2023/08/03 12:11:59;;;;;;;6.43;1.70;;;;;;;;;;4946865;28;92399;-86
2023/08/03 12:14:26;;;;;;;7.32;1.67;;;;;;;;;;4941195;28;94083;-85
2023/08/03 12:16:53;;;;;;;5.32;1.52;;;;;;;;;;4952925;28;93083;-87
2023/08/03 12:19:32;;;;;;;5.30;1.48;;;;;;;;;;4944484;28;93045;-87
2023/08/03 12:21:59;;;;;;;4.43;1.40;;;;;;;;;;4941022;28;95199;-87
2023/08/03 12:24:29;;;;;;;4.32;1.27;;;;;;;;;;4942644;28;92402;-88
2023/08/03 12:26:56;;;;;;;3.05;1.30;;;;;;;;;;4959635;28;92417;-87
2023/08/03 12:29:30;;;;;;;3.65;1.20;;;;;;;;;;4943688;28;93701;-83
2023/08/03 12:32:08;;;;;;;4.45;1.30;;;;;;;;;;4939919;28;92516;-86
2023/08/03 12:34:35;;;;;;;4.68;1.30;;;;;;;;;;4938246;28;93107;-86
2023/08/03 12:37:02;;;;;;;5.97;1.80;;;;;;;;;;4937587;28;92540;-90
2023/08/03 12:39:29;;;;;;;;;;;;;;;;;;4956354;28;93095;-89
2023/08/03 12:41:56;;;;;;;5.35;1.40;;;;;;;;;;4948277;28;92376;-89
2023/08/03 12:44:28;;;;;;;5.10;1.48;;;;;;;;;;4936940;28;93290;-88
2023/08/03 12:46:56;;;;;;;4.45;1.40;;;;;;;;;;4953912;28;95212;-90
2023/08/03 12:49:23;;;;;;;4.70;1.40;;;;;;;;;;4939854;28;93946;-89
2023/08/03 12:51:50;;;;;;;4.05;1.20;;;;;;;;;;4936405;28;93070;-87
2023/08/03 12:54:17;;;;;;;3.85;1.30;;;;;;;;;;4944893;28;92647;-89
2023/08/03 12:56:46;;;;;;;4.70;1.52;;;;;;;;;;4950554;28;94094;-90
2023/08/03 12:59:17;;;;;;;5.18;1.50;;;;;;;;;;4945582;28;92417;-89
2023/08/03 13:01:44;;;;;;;4.10;1.60;;;;;;;;;;4945262;28;92902;-90
2023/08/03 13:04:11;;;;;;;4.18;1.30;;;;;;;;;;4949841;28;94325;-89
2023/08/03 13:06:38;;;;;;;4.53;1.30;;;;;;;;;;4954548;28;92824;-89
2023/08/03 13:09:05;;;;;;;4.35;1.30;;;;;;;;;;4955184;28;93074;-87
2023/08/03 13:11:31;;;;;;;4.68;1.42;;;;;;;;;;4942504;28;94895;-86
2023/08/03 13:13:58;;;;;;;4.50;1.30;;;;;;;;;;4946899;28;95039;-86
2023/08/03 13:16:25;;;;;;;3.03;1.40;;;;;;;;;;4947111;28;93552;-87
2023/08/03 13:18:52;;;;;;;;;;;;;;;;;;4954565;28;92354;-87
2023/08/03 13:21:19;;;;;;;3.00;1.05;;;;;;;;;;4962007;28;92964;-87
2023/08/03 13:23:49;;;;;;;6.78;1.55;;;;;;;;;;4949256;28;94125;-87
2023/08/03 13:26:15;;;;;;;;;;;;;;;;;;4964430;28;92655;-88
2023/08/03 13:28:44;;;;;;;4.25;1.33;;;;;;;;;;4962599;28;95247;-87
2023/08/03 13:31:11;;;;;;;4.05;1.30;;;;;;;;;;4945980;28;92990;-87
2023/08/03 13:33:37;;;;;;;4.18;1.45;;;;;;;;;;4945134;28;95673;-87
2023/08/03 13:36:04;;;;;;;5.20;1.65;;;;;;;;;;4947963;28;95334;-87
2023/08/03 13:38:31;;;;;;;5.88;1.30;;;;;;;;;;4958744;28;92563;-87
2023/08/03 13:41:00;;;;;;;4.68;1.55;;;;;;;;;;4952782;28;92689;-87
2023/08/03 13:43:27;;;;;;;6.50;1.60;;;;;;;;;;4944773;28;93178;-86
2023/08/03 13:45:54;;;;;;;5.22;1.63;;;;;;;;;;4944020;28;92610;-87
2023/08/03 13:48:23;;;;;;;5.28;1.50;;;;;;;;;;4967073;28;92737;-89
2023/08/03 13:50:52;;;;;;;4.85;1.63;;;;;;;;;;4963808;28;94933;-89
2023/08/03 13:53:18;;;;;;;4.57;1.48;;;;;;;;;;4950125;28;93420;-88
2023/08/03 13:55:45;;;;;;;6.40;1.65;;;;;;;;;;4950128;28;95066;-89
2023/08/03 13:58:14;;;;;;;6.07;1.70;;;;;;;;;;4953461;28;92260;-89
2023/08/03 14:01:01;;;;;;;3.75;1.42;;;;;;;;;;4963171;28;94621;-90
2023/08/03 14:03:40;;;;;;;4.53;1.38;;;;;;;;;;4966648;28;92567;-89
2023/08/03 14:06:09;;;;;;;5.38;1.60;;;;;;;;;;4962561;28;93392;-88
2023/08/03 14:08:39;;;;;;;5.68;1.55;;;;;;;;;;4948896;28;94335;-90
2023/08/03 14:11:09;;;;;;;3.80;1.40;;;;;;;;;;4935052;28;94543;-90
2023/08/03 14:13:50;;;;;;;6.55;1.70;;;;;;;;;;4939751;28;92953;-90
2023/08/03 14:16:21;;;;;;;4.85;1.55;;;;;;;;;;4940458;28;93444;-90
2023/08/03 14:18:50;;;;;;;5.20;1.67;;;;;;;;;;4950516;28;92124;-91
2023/08/03 14:21:17;;;;;;;5.93;1.50;;;;;;;;;;4936888;28;95305;-89
2023/08/03 14:24:04;;;;;;;5.32;1.42;;;;;;;;;;4951098;28;94412;-89
2023/08/03 14:26:30;;;;;;;4.05;1.20;;;;;;;;;;4919431;28;95382;-89
2023/08/03 14:28:57;;;;;;;4.25;1.50;;;;;;;;;;4945174;28;95389;-89
2023/08/03 14:31:30;;;;;;;5.45;1.38;;;;;;;;;;4954395;28;92555;-89
2023/08/03 14:34:00;;;;;;;4.57;1.50;;;;;;;;;;4951219;28;92489;-82
2023/08/03 14:36:26;;;;;;;5.97;1.48;;;;;;;;;;4960944;28;92839;-88
2023/08/03 14:38:54;;;;;;;9.40;1.73;;;;;;;;;;4954098;28;94012;-89
2023/08/03 14:41:25;;;;;;;5.55;1.60;;;;;;;;;;4940795;28;92403;-89
2023/08/03 14:43:51;;;;;;;4.72;1.50;;;;;;;;;;4966542;28;91563;-90
2023/08/03 14:46:29;;;;;;;7.47;1.80;;;;;;;;;;4952421;28;92439;-90
2023/08/03 14:48:56;;;;;;;6.38;1.90;;;;;;;;;;4948296;28;92740;-89
2023/08/03 14:51:26;;;;;;;5.68;1.80;;;;;;;;;;4931843;28;95505;-90